createdAt,value
2018-03-22T00:02:22.128Z,95.20
2018-03-22T00:04:49.729Z,95.10
2018-03-22T00:07:17.339Z,95.10
2018-03-22T00:09:44.949Z,95.00
2018-03-22T00:12:12.552Z,95.10
2018-03-22T00:14:40.934Z,95.10
2018-03-22T00:17:08.543Z,95.10
2018-03-22T00:19:36.140Z,95.00
2018-03-22T00:22:03.767Z,94.80
2018-03-22T00:24:31.362Z,94.80
2018-03-22T00:26:58.965Z,94.90
2018-03-22T00:29:26.576Z,95.00
2018-03-22T00:31:54.180Z,95.00
2018-03-22T00:34:21.776Z,95.00
2018-03-22T00:36:49.405Z,94.90
2018-03-22T00:39:17.063Z,94.90
2018-03-22T00:41:44.643Z,94.80
2018-03-22T00:44:12.268Z,95.10
2018-03-22T00:46:40.642Z,95.10
2018-03-22T00:49:09.000Z,94.90
2018-03-22T00:51:36.631Z,94.90
2018-03-22T00:54:04.228Z,94.80
2018-03-22T00:56:31.816Z,94.70
2018-03-22T00:58:59.454Z,94.80
2018-03-22T01:01:27.822Z,94.80
2018-03-22T01:03:55.415Z,94.80
2018-03-22T01:06:23.020Z,94.70
2018-03-22T01:08:50.624Z,94.70
2018-03-22T01:11:18.219Z,94.70
2018-03-22T01:13:45.830Z,94.80
2018-03-22T01:16:13.428Z,94.80
2018-03-22T01:18:41.039Z,94.80
2018-03-22T01:21:08.660Z,94.90
2018-03-22T01:23:36.255Z,94.90
2018-03-22T01:26:03.861Z,94.80
2018-03-22T01:28:31.473Z,95.10
2018-03-22T01:30:59.079Z,95.30
2018-03-22T01:33:26.679Z,95.40
2018-03-22T01:35:54.291Z,95.50
2018-03-22T01:38:22.664Z,95.40
2018-03-22T01:40:51.059Z,95.50
2018-03-22T01:43:18.677Z,95.50
2018-03-22T01:45:46.275Z,95.40
2018-03-22T01:48:13.873Z,95.20
2018-03-22T01:50:41.484Z,95.20
2018-03-22T01:53:13.715Z,95.10
2018-03-22T01:55:41.339Z,95.10
2018-03-22T01:58:08.923Z,94.70
2018-03-22T02:00:36.512Z,94.80
2018-03-22T02:03:04.112Z,94.50
2018-03-22T02:05:31.703Z,94.50
2018-03-22T02:07:59.320Z,94.30
2018-03-22T02:10:26.939Z,94.40
2018-03-22T02:12:54.543Z,94.40
2018-03-22T02:15:22.134Z,94.20
2018-03-22T02:17:49.744Z,94.20
2018-03-22T02:20:18.119Z,94.40
2018-03-22T02:22:45.726Z,94.40
2018-03-22T02:25:13.334Z,94.20
2018-03-22T02:27:40.938Z,94.10
2018-03-22T02:30:08.532Z,94.10
2018-03-22T02:32:36.172Z,94.10
2018-03-22T02:35:03.764Z,94.00
2018-03-22T02:37:31.364Z,93.80
2018-03-22T02:39:58.970Z,93.70
2018-03-22T02:42:26.577Z,93.70
2018-03-22T02:44:54.947Z,94.00
2018-03-22T02:47:22.558Z,93.90
2018-03-22T02:49:50.171Z,94.00
2018-03-22T02:52:17.777Z,94.20
2018-03-22T02:54:45.404Z,94.20
2018-03-22T02:57:13.000Z,94.10
2018-03-22T02:59:40.592Z,93.90
2018-03-22T03:02:08.195Z,94.00
2018-03-22T03:04:35.803Z,94.00
2018-03-22T03:07:03.412Z,94.20
2018-03-22T03:09:31.051Z,94.40
2018-03-22T03:11:58.658Z,94.40
2018-03-22T03:14:26.252Z,94.50
2018-03-22T03:16:53.868Z,93.90
2018-03-22T03:19:21.519Z,93.80
2018-03-22T03:21:49.120Z,93.70
2018-03-22T03:24:16.755Z,93.80
2018-03-22T03:26:44.367Z,93.90
2018-03-22T03:29:12.736Z,93.60
2018-03-22T03:31:41.143Z,93.40
2018-03-22T03:34:08.749Z,93.40
2018-03-22T03:36:36.344Z,93.50
2018-03-22T03:39:03.967Z,93.60
2018-03-22T03:41:31.595Z,93.60
2018-03-22T03:43:59.191Z,93.70
2018-03-22T03:46:26.808Z,93.70
2018-03-22T03:48:54.418Z,93.80
2018-03-22T03:51:22.019Z,93.40
2018-03-22T03:53:50.396Z,93.60
2018-03-22T03:56:18.004Z,93.60
2018-03-22T03:58:45.604Z,94.10
2018-03-22T04:01:13.247Z,93.80
2018-03-22T04:03:40.848Z,93.30
2018-03-22T04:06:08.468Z,93.10
2018-03-22T04:08:36.076Z,93.20
2018-03-22T04:11:03.688Z,93.10
2018-03-22T04:13:31.288Z,93.20
2018-03-22T04:15:58.917Z,92.90
2018-03-22T04:18:27.294Z,92.70
2018-03-22T04:20:54.888Z,92.60
2018-03-22T04:23:22.500Z,92.40
2018-03-22T04:25:50.103Z,92.20
2018-03-22T04:28:17.711Z,92.10
2018-03-22T04:30:45.332Z,92.10
2018-03-22T04:33:12.936Z,91.90
2018-03-22T04:35:40.536Z,91.90
2018-03-22T04:38:08.913Z,91.70
2018-03-22T04:40:37.272Z,92.10
2018-03-22T04:43:04.871Z,92.10
2018-03-22T04:45:33.288Z,93.00
2018-03-22T04:48:00.888Z,93.00
2018-03-22T04:50:29.260Z,93.20
2018-03-22T04:52:56.937Z,93.20
2018-03-22T04:55:24.546Z,93.10
2018-03-22T04:57:52.913Z,92.80
2018-03-22T05:00:20.535Z,93.10
2018-03-22T05:02:48.147Z,93.10
2018-03-22T05:05:15.747Z,93.10
2018-03-22T05:07:44.120Z,93.00
2018-03-22T05:10:12.569Z,93.00
2018-03-22T05:12:40.157Z,93.00
2018-03-22T05:15:07.766Z,93.00
2018-03-22T05:17:35.429Z,92.80
2018-03-22T05:20:03.028Z,92.20
2018-03-22T05:22:31.415Z,91.70
2018-03-22T05:24:59.807Z,91.50
2018-03-22T05:27:27.415Z,91.50
2018-03-22T05:29:55.032Z,91.50
2018-03-22T05:32:22.628Z,91.60
2018-03-22T05:34:51.011Z,92.10
2018-03-22T05:37:18.643Z,92.10
2018-03-22T05:39:46.240Z,92.20
2018-03-22T05:42:13.848Z,92.10
2018-03-22T05:44:42.275Z,91.60
2018-03-22T05:47:10.746Z,91.90
2018-03-22T05:49:38.370Z,91.90
2018-03-22T05:52:05.981Z,91.70
2018-03-22T05:54:33.587Z,91.70
2018-03-22T05:57:01.249Z,91.50
2018-03-22T05:59:29.627Z,91.20
2018-03-22T06:01:57.240Z,91.20
2018-03-22T06:04:24.904Z,91.60
2018-03-22T06:06:52.528Z,92.10
2018-03-22T06:09:20.144Z,92.80
2018-03-22T06:11:47.741Z,93.10
2018-03-22T06:14:15.464Z,93.30
2018-03-22T06:16:43.089Z,93.40
2018-03-22T06:19:10.688Z,92.80
2018-03-22T06:21:38.320Z,92.90
2018-03-22T06:24:05.944Z,92.50
2018-03-22T06:26:33.548Z,92.40
2018-03-22T06:29:01.180Z,92.50
2018-03-22T06:31:28.784Z,92.50
2018-03-22T06:33:56.399Z,92.70
2018-03-22T06:36:24.011Z,92.80
2018-03-22T06:38:51.636Z,93.00
2018-03-22T06:41:19.244Z,93.20
2018-03-22T06:43:46.863Z,93.60
2018-03-22T06:46:16.597Z,93.40
2018-03-22T06:48:44.242Z,93.80
2018-03-22T06:51:12.335Z,93.80
2018-03-22T06:53:39.939Z,93.90
2018-03-22T06:56:07.712Z,94.50
2018-03-22T06:58:35.336Z,94.00
2018-03-22T07:01:03.711Z,94.60
2018-03-22T07:03:32.083Z,94.60
2018-03-22T07:06:00.467Z,94.70
2018-03-22T07:08:28.877Z,94.90
2018-03-22T07:10:56.508Z,94.80
2018-03-22T07:13:24.146Z,95.00
2018-03-22T07:15:51.749Z,95.50
2018-03-22T07:18:19.348Z,95.60
2018-03-22T07:20:46.969Z,95.20
2018-03-22T07:23:14.576Z,95.10
2018-03-22T07:25:42.208Z,94.70
2018-03-22T07:28:09.828Z,94.10
2018-03-22T07:30:37.428Z,94.10
2018-03-22T07:33:05.023Z,93.60
2018-03-22T07:35:32.705Z,93.40
2018-03-22T07:38:01.084Z,93.90
2018-03-22T07:40:29.462Z,93.80
2018-03-22T07:43:03.392Z,94.00
2018-03-22T07:45:30.998Z,94.00
2018-03-22T07:47:58.627Z,94.20
2018-03-22T07:50:26.240Z,94.70
2018-03-22T07:52:53.851Z,94.30
2018-03-22T07:55:21.448Z,94.50
2018-03-22T07:57:49.060Z,94.10
2018-03-22T08:00:16.660Z,93.50
2018-03-22T08:02:45.028Z,93.10
2018-03-22T08:05:12.648Z,93.10
2018-03-22T08:07:41.004Z,92.80
2018-03-22T08:10:08.597Z,92.70
2018-03-22T08:12:36.211Z,91.90
2018-03-22T08:15:03.815Z,91.70
2018-03-22T08:17:31.408Z,91.70
2018-03-22T08:19:59.039Z,91.80
2018-03-22T08:22:26.627Z,91.40
2018-03-22T08:24:54.228Z,91.40
2018-03-22T08:27:21.831Z,91.50
2018-03-22T08:29:49.431Z,91.70
2018-03-22T08:32:17.050Z,91.60
2018-03-22T08:34:44.664Z,91.30
2018-03-22T08:37:12.263Z,91.00
2018-03-22T08:39:39.864Z,91.00
2018-03-22T08:42:07.488Z,91.30
2018-03-22T08:44:35.092Z,91.10
2018-03-22T08:47:02.692Z,90.90
2018-03-22T08:49:30.295Z,91.10
2018-03-22T08:51:57.904Z,91.00
2018-03-22T08:54:25.504Z,91.80
2018-03-22T08:56:53.113Z,91.90
2018-03-22T08:59:20.724Z,92.20
2018-03-22T09:01:48.333Z,91.40
2018-03-22T09:04:15.940Z,90.60
2018-03-22T09:06:43.565Z,90.10
2018-03-22T09:09:11.161Z,90.30
2018-03-22T09:11:38.803Z,89.80
2018-03-22T09:14:06.412Z,89.10
2018-03-22T09:16:34.007Z,89.20
2018-03-22T09:19:01.627Z,89.50
2018-03-22T09:21:29.232Z,90.40
2018-03-22T09:23:56.822Z,90.60
2018-03-22T09:26:24.461Z,90.70
2018-03-22T09:28:52.061Z,90.50
2018-03-22T09:31:19.652Z,90.20
2018-03-22T09:33:47.263Z,90.00
2018-03-22T09:36:14.865Z,89.00
2018-03-22T09:38:42.460Z,89.20
2018-03-22T09:41:10.074Z,89.50
2018-03-22T09:43:37.697Z,90.00
2018-03-22T09:46:05.291Z,89.60
2018-03-22T09:48:32.900Z,88.60
2018-03-22T09:51:00.553Z,90.20
2018-03-22T09:53:28.194Z,88.90
2018-03-22T09:55:55.812Z,88.70
2018-03-22T09:58:23.400Z,88.90
2018-03-22T10:00:50.992Z,89.60
2018-03-22T10:03:18.601Z,89.70
2018-03-22T10:05:46.199Z,87.90
2018-03-22T10:08:13.823Z,87.00
2018-03-22T10:10:41.455Z,87.80
2018-03-22T10:13:09.068Z,88.50
2018-03-22T10:15:36.660Z,88.30
2018-03-22T10:18:04.260Z,88.40
2018-03-22T10:20:31.855Z,88.00
2018-03-22T10:22:59.455Z,88.20
2018-03-22T10:25:27.080Z,87.80
2018-03-22T10:27:54.688Z,87.30
2018-03-22T10:30:22.284Z,87.70
2018-03-22T10:32:49.883Z,87.40
2018-03-22T10:35:17.534Z,87.70
2018-03-22T10:37:45.132Z,89.50
2018-03-22T10:40:12.735Z,89.80
2018-03-22T10:42:40.365Z,87.60
2018-03-22T10:45:07.969Z,89.60
2018-03-22T10:47:35.604Z,88.90
2018-03-22T10:50:03.195Z,89.10
2018-03-22T10:52:30.804Z,89.00
2018-03-22T10:54:58.487Z,88.60
2018-03-22T10:57:26.083Z,87.70
2018-03-22T10:59:54.441Z,88.00
2018-03-22T11:02:28.334Z,87.30
2018-03-22T11:04:56.055Z,87.30
2018-03-22T11:07:23.664Z,87.20
2018-03-22T11:09:51.280Z,87.60
2018-03-22T11:12:18.931Z,89.00
2018-03-22T11:14:46.553Z,89.00
2018-03-22T11:17:14.168Z,88.10
2018-03-22T11:19:41.770Z,88.50
2018-03-22T11:22:09.371Z,88.50
2018-03-22T11:24:36.972Z,87.40
2018-03-22T11:27:04.608Z,88.10
2018-03-22T11:29:32.208Z,87.70
2018-03-22T11:31:59.920Z,90.10
2018-03-22T11:34:27.522Z,88.60
2018-03-22T11:36:55.132Z,89.80
2018-03-22T11:39:22.816Z,87.60
2018-03-22T11:41:50.424Z,88.10
2018-03-22T11:44:18.028Z,87.40
2018-03-22T11:46:45.632Z,87.00
2018-03-22T11:49:13.252Z,88.00
2018-03-22T11:51:40.848Z,87.60
2018-03-22T11:54:08.551Z,87.80
2018-03-22T11:56:38.083Z,86.80
2018-03-22T11:59:05.733Z,86.00
2018-03-22T12:01:33.321Z,86.00
2018-03-22T12:04:00.947Z,86.00
2018-03-22T12:06:28.552Z,86.90
2018-03-22T12:08:56.180Z,86.60
2018-03-22T12:11:23.768Z,85.90
2018-03-22T12:13:51.378Z,85.60
2018-03-22T12:16:18.987Z,85.80
2018-03-22T12:18:47.348Z,88.10
2018-03-22T12:21:14.944Z,88.00
2018-03-22T12:23:42.549Z,87.30
2018-03-22T12:26:10.154Z,87.70
2018-03-22T12:28:37.756Z,87.00
2018-03-22T12:31:05.369Z,87.70
2018-03-22T12:33:32.967Z,85.80
2018-03-22T12:36:00.566Z,87.30
2018-03-22T12:38:28.190Z,86.80
2018-03-22T12:40:55.804Z,87.50
2018-03-22T12:43:23.481Z,87.80
2018-03-22T12:45:51.040Z,87.50
2018-03-22T12:48:18.645Z,86.40
2018-03-22T12:50:46.244Z,86.90
2018-03-22T12:53:13.852Z,86.90
2018-03-22T12:55:41.444Z,87.20
2018-03-22T12:58:09.040Z,86.00
2018-03-22T13:00:36.644Z,85.00
2018-03-22T13:03:04.244Z,85.50
2018-03-22T13:05:31.840Z,86.30
2018-03-22T13:08:00.214Z,86.40
2018-03-22T13:10:28.578Z,87.20
2018-03-22T13:12:56.944Z,85.80
2018-03-22T13:15:24.557Z,85.80
2018-03-22T13:17:52.148Z,85.00
2018-03-22T13:20:19.754Z,85.40
2018-03-22T13:22:48.143Z,85.70
2018-03-22T13:25:15.756Z,85.70
2018-03-22T13:27:43.372Z,85.20
2018-03-22T13:30:10.980Z,85.20
2018-03-22T13:32:38.585Z,84.90
2018-03-22T13:35:06.184Z,85.70
2018-03-22T13:37:33.799Z,85.10
2018-03-22T13:40:01.394Z,86.60
2018-03-22T13:42:28.995Z,85.60
2018-03-22T13:44:56.599Z,85.30
2018-03-22T13:47:24.246Z,86.40
2018-03-22T13:49:51.827Z,87.00
2018-03-22T13:52:19.460Z,86.50
2018-03-22T13:54:47.824Z,86.90
2018-03-22T13:57:15.452Z,86.90
2018-03-22T13:59:43.057Z,85.40
2018-03-22T14:02:11.415Z,86.80
2018-03-22T14:04:39.007Z,86.70
2018-03-22T14:07:06.632Z,87.70
2018-03-22T14:09:34.256Z,87.70
2018-03-22T14:12:01.854Z,88.40
2018-03-22T14:14:29.504Z,88.10
2018-03-22T14:16:57.100Z,88.60
2018-03-22T14:19:24.697Z,89.60
2018-03-22T14:21:52.323Z,88.60
2018-03-22T14:24:19.944Z,88.60
2018-03-22T14:26:47.548Z,88.90
2018-03-22T14:29:15.164Z,89.30
2018-03-22T14:31:42.763Z,89.00
2018-03-22T14:34:10.363Z,89.10
2018-03-22T14:36:37.967Z,90.00
2018-03-22T14:39:05.577Z,89.60
2018-03-22T14:41:33.175Z,89.90
2018-03-22T14:44:00.778Z,90.60
2018-03-22T14:46:28.372Z,90.30
2018-03-22T14:48:55.963Z,90.70
2018-03-22T14:51:24.356Z,90.20
2018-03-22T14:53:51.956Z,90.20
2018-03-22T14:56:19.564Z,90.40
2018-03-22T14:58:47.184Z,90.60
2018-03-22T15:01:14.788Z,90.40
2018-03-22T15:03:42.394Z,90.10
2018-03-22T15:06:09.997Z,90.20
2018-03-22T15:08:37.608Z,90.50
2018-03-22T15:11:05.240Z,90.30
2018-03-22T15:13:32.858Z,90.40
2018-03-22T15:16:00.488Z,90.60
2018-03-22T15:18:28.104Z,90.20
2018-03-22T15:20:55.723Z,90.30
2018-03-22T15:23:23.312Z,90.40
2018-03-22T15:25:50.981Z,90.50
2018-03-22T15:28:18.633Z,91.10
2018-03-22T15:30:46.253Z,90.20
2018-03-22T15:33:13.856Z,90.40
2018-03-22T15:35:41.473Z,90.80
2018-03-22T15:38:09.140Z,91.60
2018-03-22T15:40:36.741Z,91.40
2018-03-22T15:43:04.391Z,91.90
2018-03-22T15:45:31.992Z,91.50
2018-03-22T15:47:59.593Z,91.30
2018-03-22T15:50:27.205Z,90.90
2018-03-22T15:52:55.574Z,91.30
2018-03-22T15:55:23.209Z,91.30
2018-03-22T15:57:50.825Z,91.40
2018-03-22T16:00:18.484Z,91.50
2018-03-22T16:02:46.091Z,90.90
2018-03-22T16:05:13.718Z,91.20
2018-03-22T16:07:41.351Z,91.40
2018-03-22T16:12:59.323Z,91.10
2018-03-22T16:15:27.855Z,91.40
2018-03-22T16:17:55.519Z,91.40
2018-03-22T16:20:23.129Z,91.00
2018-03-22T16:22:50.734Z,91.00
2018-03-22T16:25:18.340Z,91.20
2018-03-22T16:27:46.022Z,91.40
2018-03-22T16:30:13.688Z,91.40
2018-03-22T16:32:41.288Z,91.30
2018-03-22T16:35:08.906Z,91.70
2018-03-22T16:37:36.586Z,91.50
2018-03-22T16:40:04.232Z,91.50
2018-03-22T16:42:31.878Z,91.70
2018-03-22T16:44:59.616Z,91.50
2018-03-22T16:47:28.019Z,91.40
2018-03-22T16:49:55.698Z,91.40
2018-03-22T16:52:23.349Z,91.60
2018-03-22T16:54:51.019Z,90.90
2018-03-22T16:57:19.410Z,90.90
2018-03-22T16:59:47.968Z,90.90
2018-03-22T17:02:15.572Z,90.90
2018-03-22T17:04:43.189Z,91.30
2018-03-22T17:07:10.783Z,90.90
2018-03-22T17:09:38.388Z,90.90
2018-03-22T17:12:05.996Z,90.90
2018-03-22T17:14:33.594Z,90.80
2018-03-22T17:17:01.193Z,90.30
2018-03-22T17:19:28.875Z,90.60
2018-03-22T17:21:56.644Z,91.00
2018-03-22T17:24:24.279Z,90.90
2018-03-22T17:26:51.978Z,90.90
2018-03-22T17:29:19.636Z,91.10
2018-03-22T17:31:47.268Z,91.20
2018-03-22T17:34:14.964Z,90.80
2018-03-22T17:36:42.580Z,90.70
2018-03-22T17:39:10.248Z,90.90
2018-03-22T17:41:37.857Z,91.10
2018-03-22T17:44:05.452Z,91.10
2018-03-22T17:46:33.056Z,90.70
2018-03-22T17:49:00.744Z,91.40
2018-03-22T17:51:28.396Z,91.40
2018-03-22T17:53:56.000Z,91.90
2018-03-22T17:56:23.686Z,91.60
2018-03-22T17:58:51.296Z,91.70
2018-03-22T18:01:18.921Z,92.20
2018-03-22T18:03:46.559Z,92.10
2018-03-22T18:06:14.160Z,91.60
2018-03-22T18:08:41.777Z,91.80
2018-03-22T18:11:09.383Z,91.80
2018-03-22T18:13:37.030Z,91.30
2018-03-22T18:16:04.663Z,91.40
2018-03-22T18:18:32.292Z,90.70
2018-03-22T18:21:00.659Z,91.60
2018-03-22T18:23:29.093Z,92.00
2018-03-22T18:25:56.702Z,92.00
2018-03-22T18:28:25.071Z,92.60
2018-03-22T18:30:53.431Z,92.60
2018-03-22T18:33:21.072Z,92.60
2018-03-22T18:35:48.724Z,92.90
2018-03-22T18:38:16.327Z,93.30
2018-03-22T18:40:43.943Z,93.60
2018-03-22T18:43:11.548Z,93.50
2018-03-22T18:45:39.830Z,93.10
2018-03-22T18:48:08.244Z,93.00
2018-03-22T18:50:35.854Z,92.90
2018-03-22T18:53:03.464Z,92.90
2018-03-22T18:55:31.097Z,92.80
2018-03-22T18:57:59.494Z,92.50
2018-03-22T19:00:27.100Z,92.50
2018-03-22T19:02:54.747Z,92.10
2018-03-22T19:05:22.353Z,92.10
2018-03-22T19:07:49.972Z,91.60
2018-03-22T19:10:17.593Z,91.70
2018-03-22T19:12:45.192Z,91.80
2018-03-22T19:15:12.792Z,92.00
2018-03-22T19:17:41.185Z,91.90
2018-03-22T19:20:08.787Z,91.80
2018-03-22T19:22:36.388Z,91.90
2018-03-22T19:25:05.056Z,92.00
2018-03-22T19:27:33.456Z,92.10
2018-03-22T19:30:01.829Z,92.00
2018-03-22T19:32:29.447Z,92.00
2018-03-22T19:34:57.039Z,91.90
2018-03-22T19:37:24.661Z,91.80
2018-03-22T19:39:52.269Z,91.70
2018-03-22T19:42:20.648Z,91.60
2018-03-22T19:44:48.287Z,91.60
2018-03-22T19:47:15.928Z,91.50
2018-03-22T19:49:43.540Z,91.80
2018-03-22T19:52:11.908Z,92.10
2018-03-22T19:54:40.303Z,92.30
2018-03-22T19:57:08.672Z,92.60
2018-03-22T19:59:37.035Z,92.80
2018-03-22T20:02:04.655Z,92.80
2018-03-22T20:04:32.258Z,93.00
2018-03-22T20:06:59.859Z,92.60
2018-03-22T20:09:27.488Z,92.40
2018-03-22T20:11:56.236Z,92.70
2018-03-22T20:14:23.841Z,92.90
2018-03-22T20:16:52.219Z,91.90
2018-03-22T20:19:19.808Z,91.90
2018-03-22T20:21:47.440Z,92.10
2018-03-22T20:24:15.819Z,92.30
2018-03-22T20:26:43.446Z,92.40
2018-03-22T20:29:11.168Z,92.80
2018-03-22T20:31:38.848Z,92.40
2018-03-22T20:34:06.533Z,92.60
2018-03-22T20:36:34.162Z,92.90
2018-03-22T20:39:01.779Z,93.10
2018-03-22T20:41:29.395Z,93.00
2018-03-22T20:43:57.002Z,92.30
2018-03-22T20:46:25.439Z,92.60
2018-03-22T20:48:53.045Z,92.60
2018-03-22T20:51:21.416Z,92.60
2018-03-22T20:53:49.052Z,93.00
2018-03-22T20:56:16.707Z,92.70
2018-03-22T20:58:44.320Z,92.70
2018-03-22T21:01:11.931Z,92.50
2018-03-22T21:03:39.540Z,92.40
2018-03-22T21:06:07.152Z,92.40
2018-03-22T21:08:34.859Z,92.20
2018-03-22T21:11:02.460Z,91.90
2018-03-22T21:13:30.131Z,91.80
2018-03-22T21:15:57.766Z,91.70
2018-03-22T21:18:25.434Z,91.90
2018-03-22T21:20:53.863Z,92.20
2018-03-22T21:23:22.284Z,92.20
2018-03-22T21:25:49.922Z,92.20
2018-03-22T21:28:17.524Z,92.30
2018-03-22T21:30:45.145Z,92.10
2018-03-22T21:33:12.761Z,91.90
2018-03-22T21:35:40.372Z,91.80
2018-03-22T21:38:07.993Z,91.70
2018-03-22T21:40:35.655Z,91.60
2018-03-22T21:43:03.269Z,91.60
2018-03-22T21:45:30.927Z,91.60
2018-03-22T21:47:58.584Z,91.80
2018-03-22T21:50:26.207Z,92.10
2018-03-22T21:52:54.588Z,92.80
2018-03-22T21:55:22.200Z,92.80
2018-03-22T21:57:49.802Z,92.50
2018-03-22T22:00:17.420Z,92.60
2018-03-22T22:02:45.024Z,92.70
2018-03-22T22:05:13.399Z,93.10
2018-03-22T22:07:41.020Z,93.10
2018-03-22T22:10:08.643Z,92.70
2018-03-22T22:12:36.280Z,92.90
2018-03-22T22:15:03.933Z,92.60
2018-03-22T22:17:31.535Z,92.80
2018-03-22T22:19:59.185Z,92.70
2018-03-22T22:22:26.798Z,92.90
2018-03-22T22:24:54.402Z,92.50
2018-03-22T22:27:22.006Z,92.20
2018-03-22T22:29:49.617Z,92.40
2018-03-22T22:32:17.220Z,92.40
2018-03-22T22:34:44.819Z,92.60
2018-03-22T22:37:12.461Z,92.60
2018-03-22T22:39:40.064Z,93.10
2018-03-22T22:42:07.664Z,92.80
2018-03-22T22:44:35.278Z,92.80
2018-03-22T22:47:02.903Z,92.80
2018-03-22T22:49:30.519Z,93.00
2018-03-22T22:51:58.149Z,93.00
2018-03-22T22:54:25.746Z,92.60
2018-03-22T22:56:53.349Z,93.00
2018-03-22T22:59:20.959Z,92.90
2018-03-22T23:01:48.560Z,92.60
2018-03-22T23:04:16.167Z,92.30
2018-03-22T23:06:43.781Z,92.20
2018-03-22T23:09:11.379Z,92.00
2018-03-22T23:11:38.975Z,91.80
2018-03-22T23:14:06.596Z,91.80
2018-03-22T23:16:34.231Z,91.90
2018-03-22T23:19:01.844Z,92.30
2018-03-22T23:21:29.457Z,92.00
2018-03-22T23:23:57.064Z,92.70
2018-03-22T23:26:24.659Z,92.70
2018-03-22T23:28:52.266Z,92.50
2018-03-22T23:31:20.632Z,92.40
2018-03-22T23:33:48.247Z,92.40
2018-03-22T23:36:15.859Z,92.00
2018-03-22T23:38:43.469Z,92.30
2018-03-22T23:41:11.095Z,92.10
2018-03-22T23:43:38.700Z,92.10
2018-03-22T23:46:06.295Z,92.70
2018-03-22T23:48:33.888Z,92.70
2018-03-22T23:51:01.526Z,92.70
2018-03-22T23:53:29.129Z,92.50
2018-03-22T23:55:56.729Z,92.50
2018-03-22T23:58:24.349Z,92.40
